createdAt,value
2022-10-19T00:01:22.274Z,100966.56
2022-10-19T00:03:52.429Z,100964.25
2022-10-19T00:06:27.975Z,100963.69
2022-10-19T00:08:59.402Z,100962.56
2022-10-19T00:11:27.074Z,100971.44
2022-10-19T00:13:55.426Z,100966.91
2022-10-19T00:16:23.849Z,100966.38
2022-10-19T00:18:50.809Z,100964.09
2022-10-19T00:21:19.163Z,100960.31
2022-10-19T00:23:46.271Z,100968.66
2022-10-19T00:26:13.393Z,100970.19
2022-10-19T00:28:40.986Z,100962.44
2022-10-19T00:31:13.852Z,100962.34
2022-10-19T00:33:41.215Z,100965.69
2022-10-19T00:36:20.894Z,100963.72
2022-10-19T00:38:47.954Z,100959.06
2022-10-19T00:41:15.219Z,100956.69
2022-10-19T00:44:07.516Z,100968.00
2022-10-19T00:46:37.172Z,100959.66
2022-10-19T00:49:10.047Z,100967.97
2022-10-19T00:51:40.525Z,100964.84
2022-10-19T00:54:08.133Z,100964.56
2022-10-19T00:56:35.481Z,100955.28
2022-10-19T00:59:04.123Z,100959.09
2022-10-19T01:01:31.782Z,100959.50
2022-10-19T01:03:58.791Z,100961.47
2022-10-19T01:06:25.502Z,100950.06
2022-10-19T01:08:52.366Z,100955.84
2022-10-19T01:11:42.433Z,100953.47
2022-10-19T01:14:24.566Z,100945.56
2022-10-19T01:16:57.430Z,100940.81
2022-10-19T01:19:51.636Z,100938.97
2022-10-19T01:22:43.042Z,100933.91
2022-10-19T01:25:31.096Z,100934.16
2022-10-19T01:28:04.281Z,100934.97
2022-10-19T01:30:43.175Z,100939.81
2022-10-19T01:33:42.512Z,100940.09
2022-10-19T01:36:24.279Z,100945.88
2022-10-19T01:38:55.917Z,100938.13
2022-10-19T01:41:41.945Z,100931.22
2022-10-19T01:44:16.611Z,100941.50
2022-10-19T01:47:03.249Z,100937.72
2022-10-19T01:49:39.665Z,100931.34
2022-10-19T01:52:09.406Z,100925.00
2022-10-19T01:54:44.978Z,100924.44
2022-10-19T01:57:14.051Z,100921.03
2022-10-19T01:59:41.101Z,100926.94
2022-10-19T02:02:09.669Z,100921.03
2022-10-19T02:04:37.581Z,100919.38
2022-10-19T02:07:04.719Z,100910.31
2022-10-19T02:09:31.539Z,100905.97
2022-10-19T02:12:01.410Z,100909.50
2022-10-19T02:14:33.226Z,100912.06
2022-10-19T02:17:05.567Z,100907.09
2022-10-19T02:19:32.253Z,100904.25
2022-10-19T02:21:59.110Z,100911.47
2022-10-19T02:24:25.870Z,100903.72
2022-10-19T02:26:53.169Z,100895.81
2022-10-19T02:29:19.998Z,100887.78
2022-10-19T02:31:46.697Z,100888.78
2022-10-19T02:34:13.966Z,100883.13
2022-10-19T02:36:40.898Z,100887.47
2022-10-19T02:39:08.001Z,100884.97
2022-10-19T02:41:38.440Z,100879.91
2022-10-19T02:44:15.619Z,100872.13
2022-10-19T02:46:48.263Z,100879.75
2022-10-19T02:49:15.449Z,100873.69
2022-10-19T02:52:00.541Z,100867.78
2022-10-19T02:54:27.845Z,100876.94
2022-10-19T02:56:55.056Z,100875.09
2022-10-19T02:59:21.842Z,100875.22
2022-10-19T03:01:48.543Z,100873.25
2022-10-19T03:04:15.276Z,100875.09
2022-10-19T03:06:41.963Z,100877.63
2022-10-19T03:09:09.074Z,100881.28
2022-10-19T03:11:35.750Z,100879.44
2022-10-19T03:14:02.486Z,100869.31
2022-10-19T03:16:29.193Z,100876.34
2022-10-19T03:18:55.818Z,100868.47
2022-10-19T03:21:22.514Z,100869.22
2022-10-19T03:23:49.245Z,100873.53
2022-10-19T03:26:17.653Z,100876.41
2022-10-19T03:28:44.851Z,100882.72
2022-10-19T03:31:12.089Z,100877.53
2022-10-19T03:33:38.757Z,100880.75
2022-10-19T03:36:27.347Z,100882.72
2022-10-19T03:38:58.648Z,100879.91
2022-10-19T03:41:30.902Z,100888.22
2022-10-19T03:43:57.974Z,100884.84
2022-10-19T03:46:24.653Z,100887.09
2022-10-19T03:48:51.434Z,100890.50
2022-10-19T03:51:20.975Z,100884.97
2022-10-19T03:53:48.394Z,100890.34
2022-10-19T03:56:17.506Z,100887.94
2022-10-19T03:58:45.607Z,100890.06
2022-10-19T04:01:15.250Z,100888.94
2022-10-19T04:03:42.111Z,100894.72
2022-10-19T04:06:15.829Z,100896.56
2022-10-19T04:08:45.808Z,100891.88
2022-10-19T04:11:14.203Z,100897.97
2022-10-19T04:13:41.305Z,100895.00
2022-10-19T04:16:08.282Z,100887.81
2022-10-19T04:18:35.129Z,100886.69
2022-10-19T04:21:04.725Z,100889.22
2022-10-19T04:23:33.736Z,100886.69
2022-10-19T04:26:06.827Z,100893.16
2022-10-19T04:28:34.471Z,100882.75
2022-10-19T04:31:05.410Z,100886.28
2022-10-19T04:33:33.077Z,100884.72
2022-10-19T04:36:05.071Z,100885.44
2022-10-19T04:38:32.708Z,100886.84
2022-10-19T04:41:20.379Z,100887.66
2022-10-19T04:43:47.539Z,100887.81
2022-10-19T04:46:16.364Z,100888.69
2022-10-19T04:48:43.793Z,100897.13
2022-10-19T04:51:11.285Z,100891.78
2022-10-19T04:53:39.822Z,100890.78
2022-10-19T04:56:08.929Z,100891.19
2022-10-19T04:58:35.785Z,100892.31
2022-10-19T05:01:13.783Z,100894.84
2022-10-19T05:03:40.653Z,100888.22
2022-10-19T05:06:08.139Z,100895.41
2022-10-19T05:08:35.874Z,100894.16
2022-10-19T05:11:07.854Z,100894.28
2022-10-19T05:13:34.952Z,100888.41
2022-10-19T05:16:03.571Z,100889.09
2022-10-19T05:18:30.222Z,100878.09
2022-10-19T05:21:06.796Z,100879.34
2022-10-19T05:23:34.297Z,100875.97
2022-10-19T05:26:04.942Z,100878.09
2022-10-19T05:28:32.435Z,100865.16
2022-10-19T05:31:13.963Z,100866.00
2022-10-19T05:33:41.545Z,100865.31
2022-10-19T05:36:15.354Z,100863.75
2022-10-19T05:38:42.994Z,100858.13
2022-10-19T05:41:10.231Z,100865.56
2022-10-19T05:43:36.974Z,100858.94
2022-10-19T05:46:09.008Z,100855.84
2022-10-19T05:48:36.010Z,100860.91
2022-10-19T05:51:05.291Z,100851.63
2022-10-19T05:53:32.708Z,100860.06
2022-10-19T05:55:59.425Z,100864.84
2022-10-19T05:58:26.185Z,100862.47
2022-10-19T06:00:54.881Z,100857.53
2022-10-19T06:03:22.029Z,100860.38
2022-10-19T06:05:52.586Z,100865.00
2022-10-19T06:08:20.521Z,100858.94
2022-10-19T06:10:48.351Z,100860.06
2022-10-19T06:13:16.154Z,100857.53
2022-10-19T06:15:42.818Z,100865.41
2022-10-19T06:18:11.243Z,100870.22
2022-10-19T06:20:39.339Z,100866.44
2022-10-19T06:23:06.662Z,100866.84
2022-10-19T06:25:34.010Z,100865.72
2022-10-19T06:28:01.326Z,100860.22
2022-10-19T06:30:28.672Z,100875.31
2022-10-19T06:32:55.549Z,100873.31
2022-10-19T06:35:22.443Z,100882.63
2022-10-19T06:37:49.435Z,100882.03
2022-10-19T06:40:16.433Z,100892.19
2022-10-19T06:42:43.210Z,100889.53
2022-10-19T06:45:10.721Z,100887.81
2022-10-19T06:47:37.889Z,100885.84
2022-10-19T06:50:06.184Z,100884.16
2022-10-19T06:52:34.230Z,100884.72
2022-10-19T06:55:01.399Z,100891.50
2022-10-19T06:57:28.682Z,100886.84
2022-10-19T06:59:55.558Z,100889.22
2022-10-19T07:02:22.249Z,100880.91
2022-10-19T07:04:48.935Z,100885.97
2022-10-19T07:07:15.623Z,100883.47
2022-10-19T07:09:42.277Z,100884.44
2022-10-19T07:12:10.934Z,100887.56
2022-10-19T07:14:39.555Z,100886.97
2022-10-19T07:17:07.163Z,100897.13
2022-10-19T07:19:33.948Z,100895.00
2022-10-19T07:22:00.708Z,100897.81
2022-10-19T07:24:27.385Z,100892.91
2022-10-19T07:26:54.229Z,100897.25
2022-10-19T07:29:21.120Z,100895.41
2022-10-19T07:31:47.980Z,100895.84
2022-10-19T07:34:14.752Z,100893.59
2022-10-19T07:36:45.201Z,100896.25
2022-10-19T07:39:13.633Z,100893.59
2022-10-19T07:41:41.061Z,100899.38
2022-10-19T07:44:09.108Z,100891.06
2022-10-19T07:46:38.570Z,100900.50
2022-10-19T07:49:08.544Z,100905.28
2022-10-19T07:51:35.717Z,100909.66
2022-10-19T07:54:02.614Z,100912.75
2022-10-19T07:56:29.776Z,100902.63
2022-10-19T07:58:58.257Z,100908.53
2022-10-19T08:01:27.317Z,100907.41
2022-10-19T08:06:41.598Z,100902.03
2022-10-19T08:09:08.401Z,100907.41
2022-10-19T08:11:35.624Z,100907.81
2022-10-19T08:14:03.141Z,100904.59
2022-10-19T08:16:41.701Z,100913.16
2022-10-19T08:19:13.353Z,100913.59
2022-10-19T08:21:43.197Z,100911.50
2022-10-19T08:24:11.161Z,100908.66
2022-10-19T08:26:38.950Z,100905.72
2022-10-19T08:29:10.708Z,100908.09
2022-10-19T08:31:37.430Z,100910.50
2022-10-19T08:34:04.568Z,100911.34
2022-10-19T08:36:32.537Z,100908.22
2022-10-19T08:38:59.314Z,100910.66
2022-10-19T08:41:41.277Z,100902.75
2022-10-19T08:44:26.153Z,100897.94
2022-10-19T08:47:08.269Z,100899.06
2022-10-19T08:49:35.925Z,100906.56
2022-10-19T08:52:34.883Z,100902.16
2022-10-19T08:55:15.047Z,100900.50
2022-10-19T08:58:17.575Z,100904.72
2022-10-19T09:01:11.208Z,100905.00
2022-10-19T09:03:56.378Z,100912.59
2022-10-19T09:06:30.660Z,100902.88
2022-10-19T09:08:57.992Z,100892.31
2022-10-19T09:11:28.164Z,100892.50
2022-10-19T09:14:36.370Z,100897.53
2022-10-19T09:17:10.937Z,100898.22
2022-10-19T09:19:37.913Z,100892.50
2022-10-19T09:22:08.386Z,100886.97
2022-10-19T09:24:42.693Z,100884.16
2022-10-19T09:27:39.213Z,100891.78
2022-10-19T09:30:15.822Z,100884.88
2022-10-19T09:32:42.988Z,100889.09
2022-10-19T09:35:28.235Z,100894.16
2022-10-19T09:37:55.219Z,100897.84
2022-10-19T09:40:27.329Z,100896.56
2022-10-19T09:42:58.157Z,100891.91
2022-10-19T09:45:40.734Z,100891.66
2022-10-19T09:48:28.181Z,100889.09
2022-10-19T09:51:00.567Z,100893.47
2022-10-19T09:53:28.448Z,100891.66
2022-10-19T09:56:00.720Z,100891.66
2022-10-19T09:58:32.869Z,100894.03
2022-10-19T10:01:02.000Z,100891.34
2022-10-19T10:03:40.738Z,100890.34
2022-10-19T10:06:14.314Z,100885.28
2022-10-19T10:08:57.776Z,100887.41
2022-10-19T10:11:28.682Z,100882.47
2022-10-19T10:13:56.389Z,100881.47
2022-10-19T10:16:24.680Z,100881.59
2022-10-19T10:19:06.195Z,100871.19
2022-10-19T10:21:36.367Z,100874.97
2022-10-19T10:24:16.907Z,100871.47
2022-10-19T10:26:46.013Z,100869.75
2022-10-19T10:29:20.136Z,100870.47
2022-10-19T10:31:55.147Z,100871.06
2022-10-19T10:34:45.589Z,100871.78
2022-10-19T10:37:20.468Z,100879.81
2022-10-19T10:39:51.634Z,100867.09
2022-10-19T10:42:20.422Z,100876.84
2022-10-19T10:44:52.108Z,100876.41
2022-10-19T10:47:22.987Z,100872.31
2022-10-19T10:50:02.683Z,100862.03
2022-10-19T10:52:34.505Z,100866.69
2022-10-19T10:55:04.482Z,100866.25
2022-10-19T10:57:34.790Z,100868.50
2022-10-19T11:00:06.016Z,100866.38
2022-10-19T11:02:58.675Z,100865.53
2022-10-19T11:05:37.552Z,100862.00
2022-10-19T11:08:12.971Z,100853.88
2022-10-19T11:10:44.147Z,100848.09
2022-10-19T11:13:33.381Z,100848.75
2022-10-19T11:16:10.890Z,100858.94
2022-10-19T11:18:45.111Z,100855.84
2022-10-19T11:21:17.885Z,100840.47
2022-10-19T11:23:56.331Z,100840.06
2022-10-19T11:26:47.772Z,100827.91
2022-10-19T11:29:29.309Z,100832.72
2022-10-19T11:31:56.678Z,100832.56
2022-10-19T11:34:48.292Z,100819.03
2022-10-19T11:37:23.181Z,100813.41
2022-10-19T11:40:00.681Z,100804.53
2022-10-19T11:45:18.588Z,100808.63
2022-10-19T11:48:06.285Z,100794.66
2022-10-19T11:50:38.954Z,100800.00
2022-10-19T11:53:30.031Z,100792.41
2022-10-19T11:56:03.813Z,100792.09
2022-10-19T11:58:52.225Z,100779.91
2022-10-19T12:01:29.615Z,100776.50
2022-10-19T12:04:17.821Z,100776.91
2022-10-19T12:06:59.042Z,100770.28
2022-10-19T12:09:34.546Z,100763.66
2022-10-19T12:12:07.116Z,100759.13
2022-10-19T12:14:38.893Z,100764.34
2022-10-19T12:17:09.282Z,100758.56
2022-10-19T12:19:43.497Z,100752.09
2022-10-19T12:22:16.231Z,100751.09
2022-10-19T12:24:43.357Z,100751.81
2022-10-19T12:27:14.083Z,100740.38
2022-10-19T12:29:43.962Z,100739.41
2022-10-19T12:32:13.925Z,100734.63
2022-10-19T12:34:48.267Z,100744.22
2022-10-19T12:37:21.128Z,100739.41
2022-10-19T12:40:12.434Z,100732.25
2022-10-19T12:42:48.968Z,100719.81
2022-10-19T12:45:30.750Z,100728.13
2022-10-19T12:48:12.314Z,100724.63
2022-10-19T12:50:58.869Z,100721.22
2022-10-19T12:53:36.144Z,100714.00
2022-10-19T12:56:15.063Z,100722.88
2022-10-19T12:58:46.566Z,100713.72
2022-10-19T13:01:21.021Z,100710.94
2022-10-19T13:03:47.803Z,100710.09
2022-10-19T13:06:22.988Z,100713.63
2022-10-19T13:08:52.521Z,100696.28
2022-10-19T13:11:19.651Z,100690.94
2022-10-19T13:13:56.484Z,100690.34
2022-10-19T13:16:33.576Z,100682.09
2022-10-19T13:19:03.207Z,100683.91
2022-10-19T13:21:52.620Z,100680.63
2022-10-19T13:24:26.791Z,100678.22
2022-10-19T13:27:02.709Z,100671.56
2022-10-19T13:29:41.262Z,100673.78
2022-10-19T13:32:33.693Z,100665.91
2022-10-19T13:35:34.852Z,100651.97
2022-10-19T13:38:20.354Z,100650.91
2022-10-19T13:40:49.536Z,100649.44
2022-10-19T13:43:21.434Z,100647.78
2022-10-19T13:46:04.466Z,100651.56
2022-10-19T13:48:38.902Z,100646.78
2022-10-19T13:51:39.131Z,100644.72
2022-10-19T13:54:31.606Z,100646.63
2022-10-19T13:57:04.183Z,100636.91
2022-10-19T13:59:32.538Z,100636.25
2022-10-19T14:02:29.604Z,100641.50
2022-10-19T14:05:02.066Z,100623.94
2022-10-19T14:07:57.961Z,100630.63
2022-10-19T14:10:32.629Z,100625.47
2022-10-19T14:13:00.330Z,100612.44
2022-10-19T14:15:28.491Z,100621.00
2022-10-19T14:17:55.839Z,100616.16
2022-10-19T14:20:36.324Z,100611.13
2022-10-19T14:23:20.059Z,100619.41
2022-10-19T14:25:51.595Z,100623.16
2022-10-19T14:28:18.281Z,100627.81
2022-10-19T14:30:45.055Z,100612.44
2022-10-19T14:33:14.516Z,100604.41
2022-10-19T14:35:44.868Z,100608.22
2022-10-19T14:38:20.958Z,100600.72
2022-10-19T14:40:47.915Z,100618.84
2022-10-19T14:43:24.998Z,100616.41
2022-10-19T14:46:07.024Z,100611.75
2022-10-19T14:49:03.735Z,100614.41
2022-10-19T14:51:35.517Z,100593.91
2022-10-19T14:54:23.293Z,100597.19
2022-10-19T14:56:56.472Z,100597.78
2022-10-19T14:59:26.079Z,100601.34
2022-10-19T15:01:55.451Z,100594.19
2022-10-19T15:04:25.866Z,100589.22
2022-10-19T15:06:53.606Z,100587.31
2022-10-19T15:09:37.770Z,100581.56
2022-10-19T15:12:16.878Z,100574.94
2022-10-19T15:14:44.258Z,100568.13
2022-10-19T15:17:27.610Z,100564.50
2022-10-19T15:19:56.096Z,100568.25
2022-10-19T15:22:37.638Z,100567.19
2022-10-19T15:25:06.918Z,100563.28
2022-10-19T15:27:35.858Z,100568.81
2022-10-19T15:30:07.212Z,100563.50
2022-10-19T15:32:37.714Z,100555.66
2022-10-19T15:35:27.446Z,100560.88
2022-10-19T15:38:02.110Z,100549.28
2022-10-19T15:40:37.987Z,100547.00
2022-10-19T15:43:44.097Z,100556.06
2022-10-19T15:46:13.355Z,100549.69
2022-10-19T15:48:51.185Z,100553.63
2022-10-19T15:51:23.028Z,100552.19
2022-10-19T15:54:00.496Z,100552.50
2022-10-19T15:56:29.121Z,100556.41
2022-10-19T15:58:57.605Z,100547.38
2022-10-19T16:01:26.477Z,100541.78
2022-10-19T16:03:53.411Z,100550.19
2022-10-19T16:06:21.631Z,100545.53
2022-10-19T16:08:48.402Z,100548.22
2022-10-19T16:11:16.289Z,100546.69
2022-10-19T16:13:42.925Z,100548.53
2022-10-19T16:16:12.483Z,100541.34
2022-10-19T16:18:39.500Z,100549.13
2022-10-19T16:21:06.336Z,100543.25
2022-10-19T16:23:37.757Z,100548.72
2022-10-19T16:26:07.695Z,100538.47
2022-10-19T16:28:34.471Z,100532.66
2022-10-19T16:31:01.153Z,100530.09
2022-10-19T16:33:27.893Z,100534.69
2022-10-19T16:35:54.566Z,100529.72
2022-10-19T16:38:21.276Z,100533.94
2022-10-19T16:40:48.093Z,100527.50
2022-10-19T16:43:14.910Z,100529.56
2022-10-19T16:45:44.601Z,100532.00
2022-10-19T16:48:14.321Z,100540.19
2022-10-19T16:50:40.958Z,100546.50
2022-10-19T16:53:12.294Z,100556.22
2022-10-19T16:55:40.439Z,100562.28
2022-10-19T16:58:07.101Z,100566.50
2022-10-19T17:00:33.997Z,100570.53
2022-10-19T17:03:00.651Z,100571.53
2022-10-19T17:05:27.281Z,100574.31
2022-10-19T17:07:53.980Z,100579.22
2022-10-19T17:10:20.673Z,100575.53
2022-10-19T17:12:47.458Z,100578.63
2022-10-19T17:18:03.953Z,100578.63
2022-10-19T17:20:32.818Z,100570.94
2022-10-19T17:22:59.515Z,100578.69
2022-10-19T17:25:26.177Z,100578.69
2022-10-19T17:27:52.808Z,100571.69
2022-10-19T17:30:19.459Z,100572.28
2022-10-19T17:32:46.149Z,100570.41
2022-10-19T17:35:12.974Z,100568.81
2022-10-19T17:37:39.879Z,100573.03
2022-10-19T17:40:07.377Z,100563.47
2022-10-19T17:42:36.548Z,100566.53
2022-10-19T17:45:03.887Z,100564.03
2022-10-19T17:47:30.799Z,100571.34
2022-10-19T17:49:57.643Z,100559.97
2022-10-19T17:52:24.370Z,100566.44
2022-10-19T17:55:11.308Z,100557.31
2022-10-19T17:57:38.106Z,100554.94
2022-10-19T18:00:07.185Z,100550.53
2022-10-19T18:02:39.917Z,100547.91
2022-10-19T18:05:07.027Z,100545.81
2022-10-19T18:07:33.939Z,100546.38
2022-10-19T18:10:00.814Z,100536.22
2022-10-19T18:12:27.477Z,100542.72
2022-10-19T18:14:54.148Z,100545.22
2022-10-19T18:17:24.089Z,100551.88
2022-10-19T18:19:53.658Z,100549.88
2022-10-19T18:22:21.999Z,100545.66
2022-10-19T18:24:49.535Z,100545.53
2022-10-19T18:27:16.240Z,100542.72
2022-10-19T18:29:43.033Z,100548.91
2022-10-19T18:32:09.991Z,100552.28
2022-10-19T18:34:36.980Z,100556.34
2022-10-19T18:37:03.945Z,100549.75
2022-10-19T18:39:30.601Z,100556.22
2022-10-19T18:41:57.527Z,100540.19
2022-10-19T18:44:26.655Z,100541.56
2022-10-19T18:46:55.214Z,100541.75
2022-10-19T18:49:24.329Z,100545.81
2022-10-19T18:51:55.025Z,100542.59
2022-10-19T18:54:23.851Z,100535.69
2022-10-19T18:56:50.622Z,100547.09
2022-10-19T18:59:18.690Z,100531.06
2022-10-19T19:01:45.533Z,100532.88
2022-10-19T19:04:12.519Z,100529.50
2022-10-19T19:06:39.662Z,100517.47
2022-10-19T19:09:10.926Z,100518.91
2022-10-19T19:11:40.788Z,100527.06
2022-10-19T19:14:12.310Z,100512.69
2022-10-19T19:16:39.868Z,100515.31
2022-10-19T19:19:07.082Z,100509.25
2022-10-19T19:21:35.525Z,100511.34
2022-10-19T19:24:04.878Z,100516.41
2022-10-19T19:26:34.477Z,100519.22
2022-10-19T19:29:02.405Z,100512.91
2022-10-19T19:31:29.100Z,100513.59
2022-10-19T19:33:56.306Z,100507.16
2022-10-19T19:36:23.219Z,100507.72
2022-10-19T19:38:51.516Z,100499.16
2022-10-19T19:41:18.401Z,100505.09
2022-10-19T19:43:45.165Z,100505.63
2022-10-19T19:46:16.586Z,100512.00
2022-10-19T19:48:45.337Z,100505.31
2022-10-19T19:51:14.804Z,100507.31
2022-10-19T19:53:41.545Z,100503.53
2022-10-19T19:56:09.799Z,100504.94
2022-10-19T19:58:36.611Z,100513.34
2022-10-19T20:01:14.493Z,100506.34
2022-10-19T20:03:42.087Z,100507.19
2022-10-19T20:06:09.520Z,100501.41
2022-10-19T20:08:36.995Z,100500.88
2022-10-19T20:11:10.282Z,100504.81
2022-10-19T20:13:37.098Z,100504.06
2022-10-19T20:16:12.540Z,100491.19
2022-10-19T20:18:44.596Z,100494.84
2022-10-19T20:21:11.794Z,100497.78
2022-10-19T20:23:38.672Z,100484.84
2022-10-19T20:26:05.573Z,100476.81
2022-10-19T20:28:33.253Z,100468.00
2022-10-19T20:31:02.119Z,100471.38
2022-10-19T20:33:30.870Z,100469.97
2022-10-19T20:35:57.772Z,100472.63
2022-10-19T20:38:25.291Z,100472.34
2022-10-19T20:40:52.164Z,100475.31
2022-10-19T20:43:19.067Z,100466.16
2022-10-19T20:45:45.790Z,100467.28
2022-10-19T20:48:12.476Z,100476.44
2022-10-19T20:50:40.435Z,100478.84
2022-10-19T20:53:07.218Z,100476.31
2022-10-19T20:55:34.000Z,100471.56
2022-10-19T20:58:00.683Z,100473.22
2022-10-19T21:00:27.374Z,100473.66
2022-10-19T21:02:54.128Z,100475.91
2022-10-19T21:05:20.832Z,100465.34
2022-10-19T21:07:47.566Z,100469.16
2022-10-19T21:10:14.319Z,100470.03
2022-10-19T21:12:41.021Z,100453.28
2022-10-19T21:15:08.243Z,100471.28
2022-10-19T21:17:35.167Z,100470.16
2022-10-19T21:20:01.849Z,100468.47
2022-10-19T21:22:28.513Z,100462.31
2022-10-19T21:24:55.312Z,100456.25
2022-10-19T21:27:22.167Z,100472.38
2022-10-19T21:29:48.931Z,100474.78
2022-10-19T21:32:15.838Z,100474.50
2022-10-19T21:34:42.474Z,100470.16
2022-10-19T21:37:09.334Z,100468.72
2022-10-19T21:39:36.474Z,100468.72
2022-10-19T21:42:03.251Z,100463.69
2022-10-19T21:44:29.991Z,100470.72
2022-10-19T21:46:56.722Z,100472.25
2022-10-19T21:49:23.383Z,100470.03
2022-10-19T21:51:53.492Z,100457.22
2022-10-19T21:54:24.569Z,100459.88
2022-10-19T21:56:51.374Z,100456.97
2022-10-19T21:59:18.170Z,100458.34
2022-10-19T22:01:44.997Z,100451.63
2022-10-19T22:04:14.545Z,100445.03
2022-10-19T22:06:41.307Z,100444.19
2022-10-19T22:09:10.009Z,100448.78
2022-10-19T22:11:36.844Z,100446.00
2022-10-19T22:14:04.417Z,100442.19
2022-10-19T22:16:32.976Z,100451.03
2022-10-19T22:18:59.871Z,100449.06
2022-10-19T22:21:29.589Z,100435.03
2022-10-19T22:23:58.733Z,100436.44
2022-10-19T22:26:27.886Z,100422.56
2022-10-19T22:28:55.975Z,100436.44
2022-10-19T22:31:23.445Z,100437.84
2022-10-19T22:33:50.143Z,100435.75
2022-10-19T22:36:16.823Z,100431.94
2022-10-19T22:38:43.578Z,100430.97
2022-10-19T22:41:10.318Z,100427.44
2022-10-19T22:43:37.055Z,100418.31
2022-10-19T22:46:03.868Z,100414.53
2022-10-19T22:48:30.636Z,100410.63
2022-10-19T22:50:57.307Z,100400.91
2022-10-19T22:53:24.435Z,100406.81
2022-10-19T22:55:51.256Z,100416.78
2022-10-19T22:58:18.668Z,100412.00
2022-10-19T23:00:45.390Z,100410.03
2022-10-19T23:03:12.124Z,100411.59
2022-10-19T23:05:38.823Z,100404.69
2022-10-19T23:08:05.685Z,100413.00
2022-10-19T23:10:32.673Z,100403.72
2022-10-19T23:12:59.386Z,100396.00
2022-10-19T23:15:26.357Z,100401.34
2022-10-19T23:17:53.042Z,100389.69
2022-10-19T23:20:19.789Z,100393.50
2022-10-19T23:22:46.511Z,100391.50
2022-10-19T23:25:13.199Z,100381.41
2022-10-19T23:27:40.103Z,100384.50
2022-10-19T23:30:07.328Z,100391.09
2022-10-19T23:32:34.118Z,100382.22
2022-10-19T23:35:00.768Z,100380.28
2022-10-19T23:37:27.652Z,100382.94
2022-10-19T23:39:54.319Z,100379.13
2022-10-19T23:42:21.071Z,100380.84
2022-10-19T23:44:48.008Z,100372.13
2022-10-19T23:47:14.694Z,100367.94
2022-10-19T23:49:41.411Z,100360.06
2022-10-19T23:52:08.073Z,100355.72
2022-10-19T23:54:34.860Z,100362.13
2022-10-19T23:57:01.902Z,100363.53
2022-10-19T23:59:31.288Z,100358.03
